createdAt,value
2023-05-02T00:02:48.046Z,3.20
2023-05-02T00:05:49.901Z,3.22
2023-05-02T00:08:51.535Z,3.03
2023-05-02T00:11:53.083Z,2.95
2023-05-02T00:14:54.585Z,3.85
2023-05-02T00:17:56.204Z,4.20
2023-05-02T00:20:57.674Z,2.88
2023-05-02T00:23:59.966Z,3.85
2023-05-02T00:27:01.981Z,3.45
2023-05-02T00:30:03.873Z,2.67
2023-05-02T00:33:07.006Z,3.63
2023-05-02T00:36:16.338Z,4.18
2023-05-02T00:39:18.784Z,2.67
2023-05-02T00:42:20.379Z,3.30
2023-05-02T00:45:22.408Z,3.08
2023-05-02T00:48:25.597Z,3.42
2023-05-02T00:51:27.412Z,2.88
2023-05-02T00:54:31.323Z,3.28
2023-05-02T00:57:33.181Z,3.22
2023-05-02T01:00:57.944Z,3.17
2023-05-02T01:04:31.852Z,3.80
2023-05-02T01:07:48.736Z,2.53
2023-05-02T01:13:59.319Z,3.83
2023-05-02T01:17:08.213Z,3.00
2023-05-02T01:20:14.402Z,3.08
2023-05-02T01:23:46.282Z,3.08
2023-05-02T01:27:09.631Z,3.00
2023-05-02T01:30:13.342Z,2.80
2023-05-02T01:33:17.630Z,2.35
2023-05-02T01:36:20.631Z,3.03
2023-05-02T01:39:24.856Z,2.70
2023-05-02T01:42:27.469Z,4.43
2023-05-02T01:45:29.606Z,3.20
2023-05-02T01:48:32.331Z,2.88
2023-05-02T01:51:37.100Z,3.03
2023-05-02T01:54:40.955Z,3.15
2023-05-02T01:57:46.044Z,4.07
2023-05-02T02:00:49.087Z,2.80
2023-05-02T02:03:51.788Z,3.10
2023-05-02T02:07:02.188Z,3.40
2023-05-02T02:10:04.206Z,2.50
2023-05-02T02:13:17.711Z,2.70
2023-05-02T02:16:25.574Z,2.97
2023-05-02T02:19:30.541Z,3.15
2023-05-02T02:22:37.147Z,2.83
2023-05-02T02:25:39.583Z,3.15
2023-05-02T02:28:41.207Z,2.50
2023-05-02T02:31:42.681Z,3.72
2023-05-02T02:34:44.820Z,2.78
2023-05-02T02:37:48.341Z,3.08
2023-05-02T02:40:54.909Z,2.60
2023-05-02T02:44:15.182Z,2.78
2023-05-02T02:47:32.293Z,2.35
2023-05-02T02:50:47.449Z,2.38
2023-05-02T02:54:30.562Z,2.67
2023-05-02T02:57:35.208Z,3.13
2023-05-02T03:00:37.348Z,2.70
2023-05-02T03:03:40.700Z,2.92
2023-05-02T03:06:42.401Z,2.70
2023-05-02T03:09:47.036Z,3.20
2023-05-02T03:12:55.596Z,2.67
2023-05-02T03:16:20.023Z,2.45
2023-05-02T03:19:21.670Z,3.22
2023-05-02T03:22:23.890Z,2.60
2023-05-02T03:25:25.453Z,2.60
2023-05-02T03:28:27.010Z,2.50
2023-05-02T03:31:28.701Z,3.13
2023-05-02T03:34:30.273Z,2.33
2023-05-02T03:37:34.302Z,2.70
2023-05-02T03:40:36.419Z,2.63
2023-05-02T03:43:43.200Z,2.60
2023-05-02T03:46:44.714Z,2.35
2023-05-02T03:49:47.494Z,2.70
2023-05-02T03:52:50.469Z,2.40
2023-05-02T03:55:56.320Z,2.63
2023-05-02T03:59:06.143Z,2.38
2023-05-02T04:02:07.889Z,2.10
2023-05-02T04:05:19.320Z,2.20
2023-05-02T04:08:23.591Z,2.92
2023-05-02T04:11:27.275Z,2.63
2023-05-02T04:14:29.772Z,2.50
2023-05-02T04:17:32.207Z,2.97
2023-05-02T04:20:34.146Z,2.25
2023-05-02T04:23:35.820Z,2.63
2023-05-02T04:26:38.699Z,2.05
2023-05-02T04:29:44.079Z,2.38
2023-05-02T04:32:46.965Z,2.67
2023-05-02T04:35:50.105Z,2.22
2023-05-02T04:38:53.029Z,3.13
2023-05-02T04:41:54.576Z,2.50
2023-05-02T04:44:58.094Z,2.80
2023-05-02T04:47:59.660Z,2.90
2023-05-02T04:51:01.225Z,2.13
2023-05-02T04:54:04.892Z,2.67
2023-05-02T04:57:07.918Z,2.78
2023-05-02T05:00:12.718Z,2.65
2023-05-02T05:03:14.489Z,2.22
2023-05-02T05:06:16.117Z,2.53
2023-05-02T05:09:18.592Z,2.40
2023-05-02T05:12:20.434Z,2.63
2023-05-02T05:15:23.893Z,2.95
2023-05-02T05:18:30.836Z,4.45
2023-05-02T05:21:33.316Z,2.42
2023-05-02T05:24:35.923Z,2.65
2023-05-02T05:27:37.957Z,2.65
2023-05-02T05:30:40.782Z,1.88
2023-05-02T05:33:45.395Z,3.30
2023-05-02T05:36:47.572Z,3.50
2023-05-02T05:39:49.027Z,3.38
2023-05-02T05:42:50.638Z,3.72
2023-05-02T05:45:58.265Z,2.42
2023-05-02T05:49:00.087Z,3.85
2023-05-02T05:52:03.192Z,2.70
2023-05-02T05:55:05.601Z,3.72
2023-05-02T05:58:07.993Z,2.67
2023-05-02T06:01:11.629Z,4.30
2023-05-02T06:04:13.339Z,2.63
2023-05-02T06:07:18.206Z,2.92
2023-05-02T06:10:20.179Z,3.03
2023-05-02T06:13:21.983Z,3.00
2023-05-02T06:16:24.978Z,4.20
2023-05-02T06:19:26.620Z,2.67
2023-05-02T06:22:28.126Z,2.28
2023-05-02T06:25:29.737Z,3.83
2023-05-02T06:28:31.766Z,4.55
2023-05-02T06:31:33.331Z,2.67
2023-05-02T06:34:34.946Z,3.63
2023-05-02T06:37:36.581Z,2.78
2023-05-02T06:40:45.124Z,2.53
2023-05-02T06:43:46.604Z,2.67
2023-05-02T06:46:48.207Z,3.38
2023-05-02T06:49:53.727Z,3.58
2023-05-02T06:52:55.470Z,5.97
2023-05-02T06:55:57.343Z,5.68
2023-05-02T06:58:58.895Z,3.10
2023-05-02T07:02:01.234Z,3.45
2023-05-02T07:05:03.430Z,2.35
2023-05-02T07:08:05.118Z,3.05
2023-05-02T07:11:06.570Z,3.72
2023-05-02T07:14:08.517Z,3.50
2023-05-02T07:17:10.167Z,3.45
2023-05-02T07:20:12.215Z,3.10
2023-05-02T07:23:13.689Z,2.67
2023-05-02T07:26:15.260Z,3.10
2023-05-02T07:29:16.797Z,4.22
2023-05-02T07:32:18.403Z,4.15
2023-05-02T07:35:19.983Z,3.42
2023-05-02T07:38:21.455Z,2.47
2023-05-02T07:41:23.009Z,3.28
2023-05-02T07:44:24.520Z,2.75
2023-05-02T07:47:26.608Z,2.63
2023-05-02T07:50:28.224Z,4.25
2023-05-02T07:53:29.719Z,4.70
2023-05-02T07:56:31.449Z,3.90
2023-05-02T07:59:32.913Z,2.47
2023-05-02T08:02:36.658Z,4.03
2023-05-02T08:05:38.255Z,3.55
2023-05-02T08:08:39.817Z,4.00
2023-05-02T08:11:41.340Z,2.83
2023-05-02T08:14:43.007Z,2.78
2023-05-02T08:17:44.601Z,2.47
2023-05-02T08:20:46.282Z,2.67
2023-05-02T08:23:47.789Z,5.50
2023-05-02T08:26:49.337Z,2.80
2023-05-02T08:29:50.914Z,3.65
2023-05-02T08:32:52.426Z,4.00
2023-05-02T08:35:54.097Z,2.67
2023-05-02T08:38:55.634Z,2.97
2023-05-02T08:41:57.145Z,2.63
2023-05-02T08:44:58.845Z,2.67
2023-05-02T08:48:00.875Z,3.20
2023-05-02T08:51:04.038Z,2.15
2023-05-02T08:54:07.569Z,3.00
2023-05-02T08:57:09.490Z,2.97
2023-05-02T09:00:11.781Z,2.90
2023-05-02T09:03:21.317Z,2.65
2023-05-02T09:06:24.310Z,2.88
2023-05-02T09:09:26.810Z,2.92
2023-05-02T09:12:28.321Z,2.30
2023-05-02T09:15:29.790Z,2.97
2023-05-02T09:18:36.274Z,3.67
2023-05-02T09:24:41.548Z,3.08
2023-05-02T09:27:51.262Z,2.60
2023-05-02T09:31:06.867Z,3.45
2023-05-02T09:34:10.651Z,2.55
2023-05-02T09:37:35.664Z,4.28
2023-05-02T09:40:37.846Z,4.28
2023-05-02T09:43:40.200Z,3.67
2023-05-02T09:46:42.895Z,2.88
2023-05-02T09:49:46.456Z,3.50
2023-05-02T09:53:02.428Z,3.45
2023-05-02T09:56:04.666Z,3.67
2023-05-02T09:59:17.199Z,3.70
2023-05-02T10:02:21.679Z,3.45
2023-05-02T10:05:23.359Z,2.67
2023-05-02T10:08:27.476Z,6.20
2023-05-02T10:11:31.447Z,3.40
2023-05-02T10:14:39.469Z,4.05
2023-05-02T10:17:48.018Z,4.43
2023-05-02T10:20:57.084Z,3.72
2023-05-02T10:23:59.165Z,4.57
2023-05-02T10:27:02.325Z,3.70
2023-05-02T10:30:06.498Z,6.18
2023-05-02T10:33:08.224Z,3.08
2023-05-02T10:36:14.522Z,4.22
2023-05-02T10:39:16.389Z,3.63
2023-05-02T10:42:20.630Z,2.90
2023-05-02T10:45:31.337Z,3.92
2023-05-02T10:48:33.949Z,3.83
2023-05-02T10:51:38.256Z,3.20
2023-05-02T10:54:39.836Z,3.70
2023-05-02T10:57:59.686Z,2.85
2023-05-02T11:01:27.025Z,3.55
2023-05-02T11:07:48.609Z,2.50
2023-05-02T11:10:50.094Z,3.38
2023-05-02T11:13:51.619Z,2.55
2023-05-02T11:16:59.508Z,3.50
2023-05-02T11:20:01.676Z,2.90
2023-05-02T11:23:32.419Z,3.65
2023-05-02T11:26:33.960Z,3.17
2023-05-02T11:29:57.262Z,2.33
2023-05-02T11:33:04.970Z,2.10
2023-05-02T11:36:06.595Z,3.17
2023-05-02T11:39:19.392Z,3.72
2023-05-02T11:42:31.421Z,6.90
2023-05-02T11:45:36.122Z,4.13
2023-05-02T11:48:37.785Z,3.55
2023-05-02T11:51:39.403Z,4.18
2023-05-02T11:54:41.029Z,4.40
2023-05-02T11:57:42.867Z,4.45
2023-05-02T12:00:48.398Z,4.10
2023-05-02T12:03:52.506Z,4.80
2023-05-02T12:06:58.749Z,3.97
2023-05-02T12:10:00.343Z,3.72
2023-05-02T12:13:06.394Z,5.40
2023-05-02T12:16:08.156Z,4.00
2023-05-02T12:19:10.060Z,4.60
2023-05-02T12:22:13.298Z,6.47
2023-05-02T12:25:15.040Z,3.13
2023-05-02T12:28:20.127Z,2.70
2023-05-02T12:31:22.573Z,4.93
2023-05-02T12:34:34.208Z,4.25
2023-05-02T12:37:35.763Z,3.53
2023-05-02T12:40:37.560Z,3.58
2023-05-02T12:43:49.743Z,4.30
2023-05-02T12:46:59.646Z,5.95
2023-05-02T12:50:01.718Z,5.70
2023-05-02T12:53:03.885Z,3.70
2023-05-02T12:56:06.439Z,4.85
2023-05-02T12:59:08.324Z,5.43
2023-05-02T13:02:09.853Z,4.47
2023-05-02T13:05:18.437Z,5.45
2023-05-02T13:08:20.671Z,5.68
2023-05-02T13:11:22.348Z,4.88
2023-05-02T13:14:23.926Z,5.95
2023-05-02T13:17:25.642Z,7.38
2023-05-02T13:20:27.188Z,6.28
2023-05-02T13:23:28.756Z,7.05
2023-05-02T13:26:30.431Z,6.85
2023-05-02T13:29:32.011Z,5.55
2023-05-02T13:32:33.578Z,3.42
2023-05-02T13:35:35.457Z,4.80
2023-05-02T13:38:37.050Z,4.70
2023-05-02T13:41:38.584Z,5.05
2023-05-02T13:44:40.432Z,5.22
2023-05-02T13:47:41.931Z,4.97
2023-05-02T13:50:43.495Z,5.75
2023-05-02T13:53:45.288Z,4.25
2023-05-02T13:56:46.845Z,4.85
2023-05-02T13:59:48.449Z,3.95
2023-05-02T14:02:50.289Z,3.67
2023-05-02T14:05:51.847Z,4.72
2023-05-02T14:08:53.369Z,3.28
2023-05-02T14:11:55.542Z,4.00
2023-05-02T14:14:57.149Z,4.80
2023-05-02T14:17:58.728Z,4.32
2023-05-02T14:21:00.348Z,6.32
2023-05-02T14:24:01.872Z,3.55
2023-05-02T14:27:04.583Z,3.45
2023-05-02T14:30:07.301Z,5.15
2023-05-02T14:33:08.979Z,4.07
2023-05-02T14:36:10.555Z,6.25
2023-05-02T14:39:12.038Z,4.88
2023-05-02T14:42:13.500Z,3.33
2023-05-02T14:45:15.059Z,4.18
2023-05-02T14:48:17.454Z,3.40
2023-05-02T14:51:19.076Z,4.50
2023-05-02T14:54:20.932Z,3.97
2023-05-02T14:57:22.486Z,3.15
2023-05-02T15:00:24.322Z,4.25
2023-05-02T15:03:25.953Z,3.25
2023-05-02T15:06:34.225Z,2.65
2023-05-02T15:09:36.020Z,3.53
2023-05-02T15:12:37.581Z,4.80
2023-05-02T15:15:39.113Z,2.60
2023-05-02T15:18:40.789Z,4.05
2023-05-02T15:21:42.287Z,3.55
2023-05-02T15:24:43.854Z,3.40
2023-05-02T15:27:45.354Z,4.43
2023-05-02T15:30:48.953Z,3.45
2023-05-02T15:33:51.245Z,4.07
2023-05-02T15:36:54.681Z,3.13
2023-05-02T15:39:57.077Z,3.85
2023-05-02T15:42:58.582Z,4.20
2023-05-02T15:46:00.881Z,3.20
2023-05-02T15:49:02.417Z,3.50
2023-05-02T15:52:04.021Z,4.22
2023-05-02T15:55:06.126Z,3.38
2023-05-02T15:58:08.186Z,5.68
2023-05-02T16:01:09.716Z,5.72
2023-05-02T16:04:11.554Z,9.18
2023-05-02T16:07:13.196Z,8.93
2023-05-02T16:10:14.840Z,8.43
2023-05-02T16:13:16.538Z,7.85
2023-05-02T16:16:18.082Z,11.57
2023-05-02T16:19:19.597Z,12.57
2023-05-02T16:22:21.370Z,15.98
2023-05-02T16:25:22.947Z,14.18
2023-05-02T16:28:24.744Z,19.27
2023-05-02T16:31:26.762Z,17.92
2023-05-02T16:34:31.378Z,15.32
2023-05-02T16:37:35.995Z,11.10
2023-05-02T16:40:37.645Z,11.25
2023-05-02T16:43:39.260Z,9.55
2023-05-02T16:46:41.477Z,18.25
2023-05-02T16:49:42.982Z,13.32
2023-05-02T16:52:44.528Z,14.10
2023-05-02T16:55:46.023Z,11.93
2023-05-02T16:58:47.481Z,11.27
2023-05-02T17:01:49.899Z,15.55
2023-05-02T17:04:51.707Z,11.63
2023-05-02T17:07:53.162Z,10.02
2023-05-02T17:10:54.628Z,14.13
2023-05-02T17:13:56.238Z,8.85
2023-05-02T17:16:58.189Z,9.02
2023-05-02T17:19:59.722Z,8.20
2023-05-02T17:23:02.190Z,10.57
2023-05-02T17:26:05.465Z,8.48
2023-05-02T17:29:07.222Z,10.45
2023-05-02T17:32:08.779Z,9.13
2023-05-02T17:35:10.410Z,9.23
2023-05-02T17:38:11.931Z,8.95
2023-05-02T17:41:14.837Z,8.07
2023-05-02T17:44:16.431Z,8.15
2023-05-02T17:47:19.669Z,9.13
2023-05-02T17:50:21.564Z,8.95
2023-05-02T17:53:23.110Z,6.60
2023-05-02T17:56:24.597Z,7.07
2023-05-02T17:59:27.224Z,9.63
2023-05-02T18:02:28.787Z,8.65
2023-05-02T18:05:30.457Z,8.68
2023-05-02T18:08:32.102Z,6.60
2023-05-02T18:11:33.662Z,5.75
2023-05-02T18:14:35.192Z,6.93
2023-05-02T18:17:39.710Z,8.32
2023-05-02T18:20:41.312Z,8.45
2023-05-02T18:23:42.803Z,5.15
2023-05-02T18:26:44.291Z,8.40
2023-05-02T18:29:45.820Z,7.85
2023-05-02T18:32:47.337Z,6.97
2023-05-02T18:35:49.157Z,5.80
2023-05-02T18:38:50.650Z,6.03
2023-05-02T18:41:53.732Z,5.97
2023-05-02T18:44:55.365Z,6.10
2023-05-02T18:47:56.971Z,8.10
2023-05-02T18:50:58.585Z,7.03
2023-05-02T18:54:00.249Z,4.50
2023-05-02T18:57:02.790Z,6.15
2023-05-02T19:00:06.420Z,7.07
2023-05-02T19:03:08.194Z,5.72
2023-05-02T19:06:10.715Z,7.35
2023-05-02T19:09:15.687Z,4.88
2023-05-02T19:12:17.179Z,4.72
2023-05-02T19:15:18.727Z,5.05
2023-05-02T19:18:22.985Z,6.50
2023-05-02T19:21:24.522Z,6.05
2023-05-02T19:24:26.328Z,6.20
2023-05-02T19:27:27.814Z,9.23
2023-05-02T19:30:29.368Z,5.38
2023-05-02T19:33:31.002Z,5.55
2023-05-02T19:36:32.508Z,5.40
2023-05-02T19:39:33.994Z,7.65
2023-05-02T19:42:37.283Z,4.78
2023-05-02T19:45:38.895Z,5.55
2023-05-02T19:48:40.554Z,5.25
2023-05-02T19:51:42.009Z,6.53
2023-05-02T19:54:43.626Z,4.43
2023-05-02T19:57:45.166Z,5.25
2023-05-02T20:00:49.221Z,5.65
2023-05-02T20:03:51.079Z,4.60
2023-05-02T20:06:52.808Z,6.53
2023-05-02T20:09:55.433Z,5.45
2023-05-02T20:12:56.994Z,5.05
2023-05-02T20:15:58.546Z,7.03
2023-05-02T20:19:00.045Z,5.10
2023-05-02T20:22:01.610Z,5.72
2023-05-02T20:25:03.649Z,5.03
2023-05-02T20:28:05.785Z,6.43
2023-05-02T20:31:07.908Z,5.05
2023-05-02T20:34:09.492Z,3.97
2023-05-02T20:37:12.409Z,3.92
2023-05-02T20:40:14.051Z,3.83
2023-05-02T20:43:18.665Z,4.70
2023-05-02T20:46:21.107Z,3.92
2023-05-02T20:49:22.645Z,3.70
2023-05-02T20:52:24.517Z,4.47
2023-05-02T20:55:26.108Z,4.85
2023-05-02T20:58:27.661Z,4.80
2023-05-02T21:01:29.253Z,4.78
2023-05-02T21:04:30.840Z,3.67
2023-05-02T21:07:32.491Z,4.55
2023-05-02T21:10:33.991Z,5.00
2023-05-02T21:13:35.454Z,4.55
2023-05-02T21:16:37.144Z,4.13
2023-05-02T21:19:38.661Z,3.83
2023-05-02T21:22:41.863Z,3.58
2023-05-02T21:25:43.477Z,3.03
2023-05-02T21:28:45.008Z,3.17
2023-05-02T21:31:46.870Z,4.40
2023-05-02T21:34:48.397Z,3.60
2023-05-02T21:37:49.915Z,3.63
2023-05-02T21:40:51.799Z,3.53
2023-05-02T21:43:54.015Z,3.30
2023-05-02T21:46:55.723Z,4.13
2023-05-02T21:49:57.394Z,3.75
2023-05-02T21:52:58.915Z,3.17
2023-05-02T21:56:00.415Z,4.70
2023-05-02T21:59:01.865Z,3.35
2023-05-02T22:02:03.653Z,2.47
2023-05-02T22:05:05.504Z,3.92
2023-05-02T22:08:12.036Z,3.72
2023-05-02T22:14:16.732Z,4.35
2023-05-02T22:17:18.437Z,3.53
2023-05-02T22:20:20.006Z,3.40
2023-05-02T22:23:21.673Z,3.42
2023-05-02T22:26:23.473Z,3.10
2023-05-02T22:29:24.971Z,3.42
2023-05-02T22:32:26.783Z,3.83
2023-05-02T22:35:28.762Z,3.53
2023-05-02T22:38:30.305Z,3.67
2023-05-02T22:41:31.775Z,3.95
2023-05-02T22:44:37.946Z,5.07
2023-05-02T22:47:45.075Z,2.22
2023-05-02T22:50:48.495Z,3.22
2023-05-02T22:53:49.955Z,3.42
2023-05-02T22:56:53.225Z,4.60
2023-05-02T22:59:54.674Z,3.33
2023-05-02T23:02:56.316Z,2.35
2023-05-02T23:05:57.830Z,3.42
2023-05-02T23:08:59.371Z,4.50
2023-05-02T23:12:02.507Z,3.28
2023-05-02T23:15:04.338Z,3.90
2023-05-02T23:18:06.185Z,3.97
2023-05-02T23:21:14.162Z,3.40
2023-05-02T23:24:15.940Z,2.30
2023-05-02T23:27:17.433Z,3.47
2023-05-02T23:30:19.103Z,3.80
2023-05-02T23:33:21.050Z,2.63
2023-05-02T23:36:22.624Z,3.03
2023-05-02T23:39:24.087Z,2.50
2023-05-02T23:42:25.706Z,2.47
2023-05-02T23:45:27.216Z,2.40
2023-05-02T23:48:28.681Z,2.60
2023-05-02T23:51:31.686Z,2.95
2023-05-02T23:54:34.814Z,3.40
2023-05-02T23:57:37.010Z,3.45
